createdAt,value
2023-04-05T00:04:35.591Z,-1.71
2023-04-05T00:09:37.786Z,-1.68
2023-04-05T00:14:41.647Z,-1.90
2023-04-05T00:19:43.920Z,-2.04
2023-04-05T00:24:46.378Z,-2.17
2023-04-05T00:29:49.830Z,-2.19
2023-04-05T00:34:51.803Z,-2.30
2023-04-05T00:39:54.016Z,-1.98
2023-04-05T00:45:00.652Z,-2.05
2023-04-05T00:50:03.257Z,-2.32
2023-04-05T00:55:07.539Z,-2.40
2023-04-05T01:00:12.223Z,-2.48
2023-04-05T01:05:22.408Z,-2.58
2023-04-05T01:10:31.348Z,-2.54
2023-04-05T01:15:35.054Z,-2.48
2023-04-05T01:20:46.135Z,-2.60
2023-04-05T01:26:04.657Z,-2.80
2023-04-05T01:31:12.982Z,-2.96
2023-04-05T01:36:20.917Z,-2.93
2023-04-05T01:41:23.725Z,-2.88
2023-04-05T01:46:27.502Z,-2.91
2023-04-05T01:51:30.779Z,-2.77
2023-04-05T01:56:34.211Z,-2.99
2023-04-05T02:01:37.567Z,-2.88
2023-04-05T02:06:41.048Z,-3.14
2023-04-05T02:11:42.880Z,-3.17
2023-04-05T02:16:46.479Z,-3.12
2023-04-05T02:21:48.453Z,-3.25
2023-04-05T02:26:50.194Z,-3.36
2023-04-05T02:31:53.731Z,-3.37
2023-04-05T02:36:55.947Z,-3.35
2023-04-05T02:41:58.083Z,-3.35
2023-04-05T02:47:01.545Z,-3.35
2023-04-05T02:52:03.742Z,-3.49
2023-04-05T02:57:05.738Z,-3.52
2023-04-05T03:02:09.321Z,-3.54
2023-04-05T03:07:11.401Z,-3.50
2023-04-05T03:12:14.232Z,-3.60
2023-04-05T03:17:17.397Z,-3.55
2023-04-05T03:22:19.139Z,-3.40
2023-04-05T03:27:21.396Z,-3.21
2023-04-05T03:32:24.897Z,-3.19
2023-04-05T03:37:26.858Z,-3.06
2023-04-05T03:42:28.950Z,-3.00
2023-04-05T03:47:32.667Z,-2.97
2023-04-05T03:52:34.513Z,-2.76
2023-04-05T03:57:37.981Z,-2.53
2023-04-05T04:02:42.955Z,-2.51
2023-04-05T04:07:45.643Z,-2.48
2023-04-05T04:12:48.148Z,-2.39
2023-04-05T04:17:51.229Z,-2.16
2023-04-05T04:22:53.432Z,-2.08
2023-04-05T04:27:57.529Z,-2.05
2023-04-05T04:33:02.489Z,-2.04
2023-04-05T04:38:05.676Z,-2.01
2023-04-05T04:43:08.871Z,-1.93
2023-04-05T04:48:12.834Z,-2.02
2023-04-05T04:53:15.067Z,-1.82
2023-04-05T04:58:17.814Z,-1.74
2023-04-05T05:03:21.269Z,-1.70
2023-04-05T05:08:23.372Z,-1.67
2023-04-05T05:13:26.243Z,-1.65
2023-04-05T05:18:29.858Z,-1.59
2023-04-05T05:23:31.855Z,-1.53
2023-04-05T05:28:34.122Z,-1.40
2023-04-05T05:33:37.679Z,-1.29
2023-04-05T05:38:39.876Z,-1.23
2023-04-05T05:43:41.949Z,-1.01
2023-04-05T05:48:45.974Z,-0.85
2023-04-05T05:53:48.382Z,-0.60
2023-04-05T05:58:50.678Z,-0.42
2023-04-05T06:03:54.696Z,-0.26
2023-04-05T06:08:59.810Z,-0.03
2023-04-05T06:14:03.493Z,0.33
2023-04-05T06:19:06.971Z,0.67
2023-04-05T06:24:09.113Z,0.93
2023-04-05T06:29:11.200Z,1.22
2023-04-05T06:34:14.308Z,1.61
2023-04-05T06:39:16.534Z,1.90
2023-04-05T06:44:18.630Z,2.14
2023-04-05T06:49:22.166Z,2.53
2023-04-05T06:54:24.315Z,2.72
2023-04-05T06:59:28.760Z,3.10
2023-04-05T07:04:31.936Z,3.86
2023-04-05T07:09:33.674Z,4.33
2023-04-05T07:14:37.510Z,3.86
2023-04-05T07:19:41.202Z,4.31
2023-04-05T07:24:45.538Z,5.01
2023-04-05T07:29:48.226Z,4.58
2023-04-05T07:34:55.501Z,4.42
2023-04-05T07:39:57.908Z,4.39
2023-04-05T07:44:59.883Z,4.61
2023-04-05T07:50:04.076Z,4.94
2023-04-05T07:55:07.715Z,5.12
2023-04-05T08:00:10.803Z,5.92
2023-04-05T08:05:14.364Z,5.98
2023-04-05T08:10:16.391Z,5.76
2023-04-05T08:15:18.266Z,6.01
2023-04-05T08:20:21.704Z,5.97
2023-04-05T08:25:23.490Z,5.33
2023-04-05T08:30:25.797Z,5.12
2023-04-05T08:35:29.066Z,5.06
2023-04-05T08:40:36.934Z,5.03
2023-04-05T08:45:49.842Z,5.03
2023-04-05T08:50:55.183Z,5.35
2023-04-05T08:56:02.593Z,5.57
2023-04-05T09:01:06.891Z,5.92
2023-04-05T09:06:12.752Z,6.20
2023-04-05T09:11:16.584Z,6.62
2023-04-05T09:16:20.212Z,6.56
2023-04-05T09:21:23.972Z,6.91
2023-04-05T09:26:26.428Z,8.74
2023-04-05T09:31:36.103Z,13.80
2023-04-05T09:36:43.968Z,15.48
2023-04-05T09:42:05.402Z,15.88
2023-04-05T09:47:16.245Z,15.84
2023-04-05T09:52:24.708Z,15.33
2023-04-05T09:57:28.232Z,16.21
2023-04-05T10:02:36.551Z,17.28
2023-04-05T10:07:40.165Z,18.27
2023-04-05T10:12:42.229Z,17.73
2023-04-05T10:17:48.780Z,19.16
2023-04-05T10:23:00.366Z,17.86
2023-04-05T10:28:05.405Z,15.03
2023-04-05T10:33:13.956Z,13.52
2023-04-05T10:38:23.046Z,9.01
2023-04-05T10:43:26.458Z,9.30
2023-04-05T10:48:37.571Z,13.45
2023-04-05T10:53:41.655Z,10.30
2023-04-05T10:58:45.085Z,10.04
2023-04-05T11:03:52.118Z,11.03
2023-04-05T11:08:57.746Z,8.99
2023-04-05T11:14:00.004Z,8.26
2023-04-05T11:19:02.073Z,8.28
2023-04-05T11:24:07.245Z,8.26
2023-04-05T11:29:09.919Z,8.41
2023-04-05T11:34:11.928Z,8.45
2023-04-05T11:39:25.711Z,9.14
2023-04-05T11:44:28.709Z,10.67
2023-04-05T11:49:30.513Z,10.12
2023-04-05T11:54:34.852Z,10.02
2023-04-05T11:59:43.130Z,10.57
2023-04-05T12:04:45.278Z,10.54
2023-04-05T12:10:04.142Z,10.66
2023-04-05T12:15:08.645Z,9.66
2023-04-05T12:20:11.722Z,9.03
2023-04-05T12:25:16.617Z,9.23
2023-04-05T12:30:20.493Z,8.35
2023-04-05T12:35:24.051Z,8.42
2023-04-05T12:40:28.276Z,8.74
2023-04-05T12:45:30.655Z,9.08
2023-04-05T12:50:32.710Z,9.37
2023-04-05T12:55:43.210Z,9.05
2023-04-05T13:00:46.083Z,9.79
2023-04-05T13:05:48.723Z,9.50
2023-04-05T13:10:52.259Z,9.63
2023-04-05T13:15:54.457Z,9.41
2023-04-05T13:20:58.802Z,9.09
2023-04-05T13:26:02.744Z,9.26
2023-04-05T13:31:04.796Z,8.42
2023-04-05T13:36:07.979Z,8.33
2023-04-05T13:41:11.501Z,7.89
2023-04-05T13:46:13.242Z,8.40
2023-04-05T13:51:15.020Z,8.76
2023-04-05T13:56:18.995Z,9.42
2023-04-05T14:01:21.182Z,9.60
2023-04-05T14:06:23.850Z,9.01
2023-04-05T14:11:28.354Z,8.32
2023-04-05T14:16:30.803Z,8.53
2023-04-05T14:21:33.119Z,8.65
2023-04-05T14:26:36.700Z,9.42
2023-04-05T14:31:39.092Z,9.90
2023-04-05T14:36:41.453Z,9.44
2023-04-05T14:41:44.923Z,9.69
2023-04-05T14:46:48.248Z,8.85
2023-04-05T14:51:51.884Z,8.26
2023-04-05T14:56:55.799Z,8.51
2023-04-05T15:01:58.192Z,8.35
2023-04-05T15:07:00.325Z,8.35
2023-04-05T15:12:04.711Z,8.12
2023-04-05T15:17:06.806Z,7.79
2023-04-05T15:22:09.690Z,7.75
2023-04-05T15:27:13.836Z,7.87
2023-04-05T15:32:16.713Z,7.70
2023-04-05T15:37:19.103Z,7.87
2023-04-05T15:42:22.303Z,7.79
2023-04-05T15:47:24.512Z,7.37
2023-04-05T15:52:26.585Z,7.41
2023-04-05T15:57:30.252Z,7.39
2023-04-05T16:02:36.740Z,7.43
2023-04-05T16:07:38.607Z,7.38
2023-04-05T16:12:41.903Z,7.46
2023-04-05T16:17:44.501Z,7.86
2023-04-05T16:22:47.061Z,8.30
2023-04-05T16:27:50.433Z,8.01
2023-04-05T16:32:52.991Z,7.99
2023-04-05T16:37:55.707Z,8.57
2023-04-05T16:42:59.177Z,7.84
2023-04-05T16:48:04.376Z,7.61
2023-04-05T16:53:06.505Z,7.48
2023-04-05T16:58:10.305Z,7.30
2023-04-05T17:03:12.217Z,7.17
2023-04-05T17:08:14.420Z,7.04
2023-04-05T17:13:20.309Z,6.97
2023-04-05T17:18:22.271Z,6.79
2023-04-05T17:23:25.838Z,6.76
2023-04-05T17:28:29.500Z,6.61
2023-04-05T17:33:32.120Z,6.45
2023-04-05T17:38:34.571Z,6.20
2023-04-05T17:43:37.960Z,5.97
2023-04-05T17:48:40.379Z,5.79
2023-04-05T17:53:42.618Z,5.52
2023-04-05T17:58:46.515Z,5.31
2023-04-05T18:03:48.534Z,5.11
2023-04-05T18:08:50.403Z,4.96
2023-04-05T18:13:54.102Z,4.99
2023-04-05T18:18:58.546Z,4.93
2023-04-05T18:24:00.573Z,4.89
2023-04-05T18:29:04.063Z,4.75
2023-04-05T18:34:06.440Z,4.81
2023-04-05T18:39:09.031Z,4.86
2023-04-05T18:44:14.999Z,4.92
2023-04-05T18:49:16.760Z,4.92
2023-04-05T18:54:18.620Z,4.89
2023-04-05T18:59:22.169Z,4.87
2023-04-05T19:04:24.163Z,4.86
2023-04-05T19:09:26.134Z,4.73
2023-04-05T19:14:29.283Z,4.61
2023-04-05T19:19:31.520Z,4.43
2023-04-05T19:24:33.663Z,4.37
2023-04-05T19:29:37.302Z,4.21
2023-04-05T19:34:39.183Z,4.12
2023-04-05T19:39:40.970Z,4.11
2023-04-05T19:44:50.421Z,4.06
2023-04-05T19:49:53.593Z,3.95
2023-04-05T19:54:55.367Z,3.96
2023-04-05T20:00:01.533Z,3.92
2023-04-05T20:05:13.729Z,4.00
2023-04-05T20:10:15.724Z,3.96
2023-04-05T20:15:34.453Z,3.87
2023-04-05T20:20:36.891Z,3.85
2023-04-05T20:25:41.976Z,3.80
2023-04-05T20:30:45.530Z,3.71
2023-04-05T20:35:47.449Z,3.65
2023-04-05T20:40:49.974Z,3.60
2023-04-05T20:45:53.495Z,3.53
2023-04-05T20:50:55.384Z,3.48
2023-04-05T20:55:57.583Z,3.32
2023-04-05T21:01:01.331Z,3.19
2023-04-05T21:06:03.975Z,3.07
2023-04-05T21:11:07.013Z,2.94
2023-04-05T21:16:10.669Z,2.84
2023-04-05T21:21:12.775Z,2.62
2023-04-05T21:26:15.023Z,2.58
2023-04-05T21:31:18.703Z,2.49
2023-04-05T21:36:20.833Z,2.37
2023-04-05T21:41:22.992Z,2.21
2023-04-05T21:46:26.763Z,2.16
2023-04-05T21:51:28.750Z,2.10
2023-04-05T21:56:30.854Z,2.09
2023-04-05T22:01:34.674Z,2.01
2023-04-05T22:06:36.838Z,2.07
2023-04-05T22:11:39.071Z,2.02
2023-04-05T22:16:42.852Z,1.77
2023-04-05T22:21:45.080Z,1.53
2023-04-05T22:26:46.918Z,1.40
2023-04-05T22:31:50.979Z,1.32
2023-04-05T22:36:53.143Z,1.26
2023-04-05T22:41:55.768Z,1.17
2023-04-05T22:46:59.623Z,1.26
2023-04-05T22:52:01.872Z,1.31
2023-04-05T22:57:04.110Z,1.37
2023-04-05T23:02:07.966Z,1.30
2023-04-05T23:07:09.847Z,1.16
2023-04-05T23:12:11.953Z,1.05
2023-04-05T23:17:15.646Z,0.99
2023-04-05T23:22:17.644Z,0.86
2023-04-05T23:27:19.771Z,0.69
2023-04-05T23:32:23.241Z,0.42
2023-04-05T23:37:25.644Z,0.30
2023-04-05T23:42:27.683Z,0.22
2023-04-05T23:47:30.915Z,-0.05
2023-04-05T23:52:33.798Z,0.05
2023-04-05T23:57:35.910Z,-0.08
